Time;durP1;ratioP1;P1;durP2;ratioP2;P2;SDS_P1;SDS_P2;PMS_P1;PMS_P2;Temp;Humidity;BMP_temperature;BMP_pressure;BME280_temperature;BME280_humidity;BME280_pressure;Samples;Min_cycle;Max_cycle;Signal;HPM_P1;HPM_P2
2021/09/22 00:00:06;;;;;;;6.13;2.30;;;13.80;94.70;;;;;;7418002;19;20007;-79
2021/09/22 00:02:46;;;;;;;8.02;2.60;;;13.80;94.70;;;;;;7418688;19;20021;-79
2021/09/22 00:05:16;;;;;;;6.10;2.60;;;13.90;94.60;;;;;;7420300;19;20018;-81
2021/09/22 00:07:53;;;;;;;6.60;2.50;;;13.80;94.70;;;;;;7419254;19;20048;-80
2021/09/22 00:10:23;;;;;;;5.30;2.55;;;13.90;94.70;;;;;;7415642;19;20003;-80
2021/09/22 00:12:56;;;;;;;6.43;2.78;;;13.90;94.70;;;;;;7413523;19;20002;-81
2021/09/22 00:15:28;;;;;;;5.93;3.05;;;13.90;94.80;;;;;;7414572;19;20017;-80
2021/09/22 00:18:00;;;;;;;7.13;2.83;;;13.80;94.90;;;;;;7413943;19;20014;-80
2021/09/22 00:20:30;;;;;;;4.95;2.50;;;13.80;95.00;;;;;;7418918;19;20019;-79
2021/09/22 00:23:00;;;;;;;6.82;2.88;;;13.80;95.00;;;;;;7417352;19;20002;-80
2021/09/22 00:25:36;;;;;;;4.53;2.72;;;13.80;95.00;;;;;;7418291;19;20031;-79
2021/09/22 00:28:09;;;;;;;9.25;3.03;;;13.90;95.00;;;;;;7414298;19;20006;-80
2021/09/22 00:30:40;;;;;;;6.80;2.83;;;13.90;95.00;;;;;;7417050;19;20007;-81
2021/09/22 00:33:12;;;;;;;5.80;2.55;;;13.70;95.10;;;;;;7414447;19;20006;-81
2021/09/22 00:35:41;;;;;;;5.70;2.58;;;13.60;95.30;;;;;;7415469;19;20014;-79
2021/09/22 00:38:11;;;;;;;6.90;3.20;;;13.60;95.60;;;;;;7416833;19;20010;-80
2021/09/22 00:40:41;;;;;;;5.43;2.80;;;13.60;95.80;;;;;;7416172;19;20015;-80
2021/09/22 00:43:13;;;;;;;8.73;2.88;;;13.50;96.00;;;;;;7416312;19;20034;-79
2021/09/22 00:45:43;;;;;;;6.95;2.78;;;13.40;96.20;;;;;;7418514;19;20285;-80
2021/09/22 00:48:23;;;;;;;5.32;2.75;;;13.40;96.50;;;;;;7414524;19;20451;-80
2021/09/22 00:50:58;;;;;;;8.35;2.90;;;13.40;96.60;;;;;;7413895;19;20010;-80
2021/09/22 00:53:28;;;;;;;7.53;3.15;;;13.40;96.60;;;;;;7421689;19;20010;-80
2021/09/22 00:55:59;;;;;;;8.35;3.10;;;13.40;96.70;;;;;;7416804;19;20023;-81
2021/09/22 00:58:31;;;;;;;5.07;2.65;;;13.60;96.80;;;;;;7422997;19;20038;-80
2021/09/22 01:01:04;;;;;;;7.50;3.05;;;13.60;96.80;;;;;;7422024;19;20006;-81
2021/09/22 01:03:35;;;;;;;5.70;2.60;;;13.60;96.60;;;;;;7421727;19;20011;-80
2021/09/22 01:06:06;;;;;;;7.05;3.17;;;13.60;96.80;;;;;;7420911;19;20018;-81
2021/09/22 01:08:45;;;;;;;8.70;2.92;;;13.60;96.80;;;;;;7421741;19;20026;-81
2021/09/22 01:11:15;;;;;;;6.10;2.92;;;13.60;97.00;;;;;;7420876;19;20048;-80
2021/09/22 01:13:49;;;;;;;6.22;2.85;;;13.50;97.40;;;;;;7425105;19;20094;-80
2021/09/22 01:19:06;;;;;;;9.23;2.78;;;13.50;97.70;;;;;;7425842;19;20011;-80
2021/09/22 01:21:38;;;;;;;8.20;3.25;;;13.20;98.30;;;;;;7421326;19;20018;-79
2021/09/22 01:24:08;;;;;;;7.25;3.05;;;13.10;98.80;;;;;;7418478;19;20011;-79
2021/09/22 01:26:39;;;;;;;6.05;3.33;;;13.00;99.60;;;;;;7420341;19;20018;-81
2021/09/22 01:29:09;;;;;;;7.22;3.72;;;13.00;99.90;;;;;;7429261;19;20046;-80
2021/09/22 01:31:41;;;;;;;8.27;3.25;;;13.00;99.90;;;;;;7429244;19;20024;-80
2021/09/22 01:34:15;;;;;;;7.50;3.45;;;13.00;99.90;;;;;;7429545;19;20026;-81
2021/09/22 01:37:09;;;;;;;10.73;3.92;;;13.10;99.90;;;;;;7428994;19;20026;-80
2021/09/22 01:40:21;;;;;;;7.88;3.55;;;13.10;99.90;;;;;;7425607;19;20040;-80
2021/09/22 01:42:51;;;;;;;8.70;3.83;;;12.90;99.90;;;;;;7425051;19;20010;-80
2021/09/22 01:45:21;;;;;;;16.40;3.90;;;12.90;99.90;;;;;;7428809;19;20007;-82
2021/09/22 01:47:51;;;;;;;10.13;3.67;;;12.80;99.90;;;;;;7429354;19;20006;-80
2021/09/22 01:50:23;;;;;;;6.95;4.18;;;12.60;99.90;;;;;;7428733;19;20010;-80
2021/09/22 01:52:58;;;;;;;6.85;3.53;;;12.60;99.90;;;;;;7427663;19;20010;-81
2021/09/22 01:55:27;;;;;;;9.23;4.20;;;12.60;99.90;;;;;;7417373;19;20007;-80
2021/09/22 01:58:08;;;;;;;13.90;4.13;;;12.60;99.90;;;;;;7418434;19;20052;-79
2021/09/22 02:00:53;;;;;;;8.30;3.90;;;12.60;99.90;;;;;;7421280;19;20014;-80
2021/09/22 02:03:37;;;;;;;12.73;5.22;;;12.50;99.90;;;;;;7429164;19;20016;-80
2021/09/22 02:06:15;;;;;;;9.48;4.22;;;12.40;99.90;;;;;;7428546;19;20043;-80
2021/09/22 02:08:48;;;;;;;10.50;4.10;;;12.40;99.90;;;;;;7429109;19;20018;-81
2021/09/22 02:11:35;;;;;;;10.90;4.00;;;12.40;99.90;;;;;;7427958;19;20030;-81
2021/09/22 02:14:07;;;;;;;15.15;4.15;;;12.30;99.90;;;;;;7429301;19;20014;-81
2021/09/22 02:16:46;;;;;;;11.25;4.30;;;12.30;99.90;;;;;;7425193;19;20002;-82
2021/09/22 02:19:20;;;;;;;8.63;3.97;;;12.20;99.90;;;;;;7431505;19;20090;-82
2021/09/22 02:21:59;;;;;;;15.15;4.63;;;12.20;99.90;;;;;;7429463;19;20014;-81
2021/09/22 02:24:51;;;;;;;13.20;4.45;;;12.30;99.90;;;;;;7429102;19;20042;-81
2021/09/22 02:27:22;;;;;;;12.85;4.45;;;12.30;99.90;;;;;;7427511;19;20014;-81
2021/09/22 02:29:53;;;;;;;11.27;4.47;;;12.30;99.90;;;;;;7427357;19;20018;-80
2021/09/22 02:32:26;;;;;;;9.48;3.80;;;12.20;99.90;;;;;;7425080;19;20010;-82
2021/09/22 02:34:58;;;;;;;12.95;4.57;;;12.30;99.90;;;;;;7424664;19;20009;-80
2021/09/22 02:37:27;;;;;;;13.38;4.15;;;12.30;99.90;;;;;;7428058;19;20015;-81
2021/09/22 02:40:19;;;;;;;12.90;3.75;;;12.30;99.90;;;;;;7428073;19;20013;-82
2021/09/22 02:42:50;;;;;;;11.30;3.75;;;12.30;99.90;;;;;;7429359;19;20015;-83
2021/09/22 02:45:23;;;;;;;11.80;4.25;;;12.30;99.90;;;;;;7428470;19;20010;-82
2021/09/22 02:47:53;;;;;;;14.00;4.32;;;12.20;99.90;;;;;;7428420;19;20041;-82
2021/09/22 02:50:22;;;;;;;14.88;4.70;;;12.10;99.90;;;;;;7426480;19;20015;-81
2021/09/22 02:52:52;;;;;;;12.57;4.38;;;12.10;99.90;;;;;;7426325;19;20010;-81
2021/09/22 02:55:28;;;;;;;16.52;5.80;;;12.20;99.90;;;;;;7425808;19;20015;-80
2021/09/22 02:57:59;;;;;;;13.90;4.28;;;12.20;99.90;;;;;;7424530;19;20007;-82
2021/09/22 03:00:33;;;;;;;11.57;4.20;;;12.10;99.90;;;;;;7419209;19;20017;-79
2021/09/22 03:03:03;;;;;;;11.52;3.90;;;12.00;99.90;;;;;;7421141;19;20031;-80
2021/09/22 03:05:34;;;;;;;14.18;4.13;;;11.90;99.90;;;;;;7420627;19;20015;-81
2021/09/22 03:08:14;;;;;;;12.27;4.90;;;11.80;99.90;;;;;;7423873;19;20063;-81
2021/09/22 03:10:46;;;;;;;9.50;4.30;;;11.80;99.90;;;;;;7425733;19;20404;-80
2021/09/22 03:13:16;;;;;;;17.83;4.82;;;11.90;99.90;;;;;;7423713;19;20035;-82
2021/09/22 03:15:45;;;;;;;18.23;5.03;;;11.90;99.90;;;;;;7421338;19;20010;-81
2021/09/22 03:18:15;;;;;;;13.07;5.10;;;12.00;99.90;;;;;;7419849;19;20026;-80
2021/09/22 03:20:47;;;;;;;11.63;4.85;;;12.10;99.90;;;;;;7425702;19;20019;-81
2021/09/22 03:23:17;;;;;;;11.05;4.45;;;12.20;99.90;;;;;;7426411;19;20011;-80
2021/09/22 03:25:56;;;;;;;17.52;5.20;;;12.30;99.90;;;;;;7423500;19;20020;-80
2021/09/22 03:28:26;;;;;;;17.17;5.10;;;12.40;99.90;;;;;;7423575;19;20010;-79
2021/09/22 03:30:58;;;;;;;16.80;4.88;;;12.50;99.90;;;;;;7419489;19;20465;-81
2021/09/22 03:33:30;;;;;;;12.18;4.80;;;12.60;99.90;;;;;;7416533;19;20029;-79
2021/09/22 03:36:03;;;;;;;11.55;3.95;;;12.70;99.90;;;;;;7406208;19;20039;-80
2021/09/22 03:38:32;;;;;;;12.20;4.10;;;12.70;99.90;;;;;;7406763;19;20136;-79
2021/09/22 03:41:08;;;;;;;17.52;5.63;;;12.70;99.90;;;;;;7406446;19;20446;-80
2021/09/22 03:43:39;;;;;;;13.10;4.78;;;12.80;99.90;;;;;;7407993;19;20007;-79
2021/09/22 03:46:15;;;;;;;14.55;4.78;;;12.70;99.90;;;;;;7406674;19;20033;-79
2021/09/22 03:48:45;;;;;;;14.50;4.40;;;12.70;99.90;;;;;;7412669;19;20011;-80
2021/09/22 03:51:16;;;;;;;18.80;5.88;;;12.80;99.90;;;;;;7408071;19;20052;-80
2021/09/22 03:53:49;;;;;;;14.95;4.90;;;12.80;99.90;;;;;;7407004;19;20017;-80
2021/09/22 03:56:26;;;;;;;10.55;4.00;;;12.80;99.90;;;;;;7408270;19;20056;-80
2021/09/22 03:58:55;;;;;;;12.00;4.78;;;12.90;99.90;;;;;;7408957;19;20012;-81
2021/09/22 04:01:29;;;;;;;19.05;4.85;;;12.80;99.90;;;;;;7412850;19;20038;-80
2021/09/22 04:04:00;;;;;;;11.98;4.68;;;12.90;99.90;;;;;;7415075;19;20363;-80
2021/09/22 04:06:32;;;;;;;16.52;5.57;;;12.80;99.90;;;;;;7422975;19;20010;-80
2021/09/22 04:09:05;;;;;;;14.90;5.18;;;12.90;99.90;;;;;;7420780;19;20032;-80
2021/09/22 04:11:39;;;;;;;11.85;4.40;;;12.90;99.90;;;;;;7420229;19;20006;-81
2021/09/22 04:14:08;;;;;;;10.75;4.55;;;13.00;99.90;;;;;;7419784;19;20331;-80
2021/09/22 04:16:41;;;;;;;18.50;4.78;;;12.90;99.90;;;;;;7421731;19;20007;-82
2021/09/22 04:19:10;;;;;;;15.63;5.03;;;12.90;99.90;;;;;;7428463;19;20014;-81
2021/09/22 04:21:41;;;;;;;19.23;4.80;;;12.90;99.90;;;;;;7427562;19;20055;-80
2021/09/22 04:24:10;;;;;;;12.43;4.53;;;12.90;99.90;;;;;;7419462;19;20003;-81
2021/09/22 04:26:43;;;;;;;12.48;5.07;;;12.90;99.90;;;;;;7420788;19;20015;-80
2021/09/22 04:29:23;;;;;;;11.32;4.75;;;12.90;99.90;;;;;;7419319;19;20007;-79
2021/09/22 04:32:11;;;;;;;;;;;13.00;99.90;;;;;;7419020;19;20062;-80
2021/09/22 04:35:01;;;;;;;12.63;5.25;;;13.00;99.90;;;;;;7420150;19;20333;-80
2021/09/22 04:37:53;;;;;;;13.13;5.07;;;12.90;99.90;;;;;;7420483;19;20030;-82
2021/09/22 04:40:55;;;;;;;11.88;4.93;;;12.70;99.90;;;;;;7418876;19;20018;-80
2021/09/22 04:43:46;;;;;;;16.00;5.85;;;12.50;99.90;;;;;;7426983;19;20014;-80
2021/09/22 04:46:36;;;;;;;15.23;4.85;;;12.50;99.90;;;;;;7431260;19;20021;-81
2021/09/22 04:49:27;;;;;;;14.80;4.78;;;12.40;99.90;;;;;;7429703;19;20011;-80
2021/09/22 04:52:15;;;;;;;27.83;5.75;;;12.30;99.90;;;;;;7420318;19;20015;-80
2021/09/22 04:55:03;;;;;;;14.70;5.20;;;12.20;99.90;;;;;;7423707;19;20014;-80
2021/09/22 04:57:52;;;;;;;14.02;5.90;;;12.10;99.90;;;;;;7419600;19;20011;-79
2021/09/22 05:00:45;;;;;;;15.50;6.15;;;12.00;99.90;;;;;;7414974;19;20039;-81
2021/09/22 05:03:33;;;;;;;16.65;5.55;;;12.10;99.90;;;;;;7420720;19;20007;-80
2021/09/22 05:06:27;;;;;;;14.65;5.38;;;12.20;99.90;;;;;;7416109;19;20014;-80
2021/09/22 05:09:15;;;;;;;20.80;6.63;;;12.30;99.90;;;;;;7423917;19;20018;-79
2021/09/22 05:12:04;;;;;;;16.35;6.47;;;12.40;99.90;;;;;;7425446;19;20078;-81
2021/09/22 05:14:53;;;;;;;16.92;6.40;;;12.50;99.90;;;;;;7422649;19;20029;-80
2021/09/22 05:17:44;;;;;;;17.10;5.95;;;12.60;99.90;;;;;;7419229;19;20011;-80
2021/09/22 05:20:36;;;;;;;19.00;5.53;;;12.70;99.90;;;;;;7425222;19;20011;-81
2021/09/22 05:23:27;;;;;;;13.60;5.97;;;12.70;99.90;;;;;;7421860;19;20047;-80
2021/09/22 05:26:21;;;;;;;16.70;5.95;;;12.70;99.90;;;;;;7424633;19;20055;-81
2021/09/22 05:29:15;;;;;;;20.30;6.93;;;12.80;99.90;;;;;;7425536;19;20021;-81
2021/09/22 05:32:08;;;;;;;16.40;5.57;;;12.80;99.90;;;;;;7426367;19;20007;-81
2021/09/22 05:35:03;;;;;;;16.30;5.32;;;12.90;99.90;;;;;;7430303;19;20006;-81
2021/09/22 05:37:52;;;;;;;15.85;5.63;;;12.90;99.90;;;;;;7427245;19;20015;-81
2021/09/22 05:40:43;;;;;;;11.88;5.53;;;12.90;99.90;;;;;;7427437;19;20015;-82
2021/09/22 05:43:37;;;;;;;16.15;5.75;;;13.00;99.90;;;;;;7419590;19;20074;-80
2021/09/22 05:46:37;;;;;;;21.15;5.80;;;13.10;99.90;;;;;;7416431;19;20021;-79
2021/09/22 05:49:29;;;;;;;;;;;13.10;99.90;;;;;;7427984;19;20011;-80
2021/09/22 05:52:21;;;;;;;16.00;5.43;;;13.10;99.90;;;;;;7425654;19;19910;-82
2021/09/22 05:55:14;;;;;;;23.55;6.38;;;13.20;99.90;;;;;;7433041;19;20006;-82
2021/09/22 05:58:02;;;;;;;21.40;6.35;;;13.20;99.90;;;;;;7426113;19;20048;-81
2021/09/22 06:00:51;;;;;;;20.10;6.63;;;13.20;99.90;;;;;;7427127;19;20006;-82
2021/09/22 06:03:41;;;;;;;19.52;5.95;;;13.20;99.90;;;;;;7425533;19;20026;-82
2021/09/22 06:06:37;;;;;;;17.77;5.45;;;13.20;99.90;;;;;;7417229;19;20011;-79
2021/09/22 06:09:35;;;;;;;17.40;5.10;;;13.30;99.90;;;;;;7427634;19;20011;-82
2021/09/22 06:12:22;;;;;;;20.75;5.82;;;13.40;99.90;;;;;;7426665;19;20014;-80
2021/09/22 06:14:52;;;;;;;20.20;4.80;;;13.50;99.90;;;;;;7424977;19;20010;-81
2021/09/22 06:17:22;;;;;;;15.57;5.35;;;13.50;99.90;;;;;;7428875;19;20014;-81
2021/09/22 06:19:56;;;;;;;23.23;5.45;;;13.50;99.90;;;;;;7419983;19;20089;-78
2021/09/22 06:22:29;;;;;;;16.13;4.65;;;13.60;99.90;;;;;;7413209;19;20011;-82
2021/09/22 06:25:02;;;;;;;28.55;7.25;;;13.50;99.90;;;;;;7416114;19;20026;-80
2021/09/22 06:27:35;;;;;;;17.23;5.43;;;13.60;99.90;;;;;;7416227;19;20024;-81
2021/09/22 06:30:09;;;;;;;16.13;4.78;;;13.50;99.90;;;;;;7410873;19;20018;-81
2021/09/22 06:32:39;;;;;;;15.10;4.40;;;13.60;99.90;;;;;;7411021;19;20032;-80
2021/09/22 06:35:21;;;;;;;18.83;4.53;;;13.60;99.90;;;;;;7415111;19;20325;-80
2021/09/22 06:38:01;;;;;;;22.13;5.23;;;13.70;99.90;;;;;;7412190;19;20018;-79
2021/09/22 06:41:00;;;;;;;18.25;4.70;;;13.70;99.90;;;;;;7415866;19;20014;-80
2021/09/22 06:43:40;;;;;;;21.73;5.45;;;13.70;99.90;;;;;;7415823;19;20010;-80
2021/09/22 06:46:14;;;;;;;18.38;5.38;;;13.80;99.90;;;;;;7416677;19;20027;-80
2021/09/22 06:48:44;;;;;;;18.00;4.85;;;13.80;99.90;;;;;;7415092;19;20002;-81
2021/09/22 06:51:17;;;;;;;21.02;4.97;;;13.80;99.90;;;;;;7414478;19;20010;-81
2021/09/22 06:53:49;;;;;;;18.17;3.83;;;13.90;99.90;;;;;;7418295;19;20021;-80
2021/09/22 06:56:24;;;;;;;15.10;5.15;;;14.00;99.90;;;;;;7420280;19;20077;-79
2021/09/22 06:58:58;;;;;;;23.50;4.70;;;14.10;99.90;;;;;;7417764;19;20021;-81
2021/09/22 07:01:36;;;;;;;19.92;4.70;;;14.20;99.90;;;;;;7417744;19;20029;-82
2021/09/22 07:04:15;;;;;;;15.88;4.70;;;14.40;99.90;;;;;;7412886;19;20011;-83
2021/09/22 07:09:47;;;;;;;15.05;5.15;;;14.60;99.90;;;;;;7428688;19;20025;-82
2021/09/22 07:12:26;;;;;;;17.05;4.82;;;14.70;99.90;;;;;;7423805;19;20014;-82
2021/09/22 07:14:59;;;;;;;24.35;5.03;;;14.80;99.90;;;;;;7427298;19;20011;-82
2021/09/22 07:17:30;;;;;;;20.95;5.75;;;14.80;99.90;;;;;;7426166;19;20045;-81
2021/09/22 07:20:01;;;;;;;23.65;4.30;;;14.80;99.90;;;;;;7425022;19;20015;-81
2021/09/22 07:22:38;;;;;;;21.02;4.93;;;14.80;99.90;;;;;;7420986;19;20021;-81
2021/09/22 07:25:12;;;;;;;19.25;4.20;;;14.90;99.90;;;;;;7423127;19;20031;-81
2021/09/22 07:27:46;;;;;;;19.13;5.03;;;15.00;99.90;;;;;;7416080;19;20412;-82
2021/09/22 07:30:18;;;;;;;23.00;5.13;;;15.00;99.90;;;;;;7407496;19;20086;-81
2021/09/22 07:32:59;;;;;;;22.40;4.93;;;15.10;99.90;;;;;;7422347;19;20018;-84
2021/09/22 07:35:39;;;;;;;21.40;4.82;;;15.20;99.90;;;;;;7415100;19;20056;-82
2021/09/22 07:38:12;;;;;;;19.63;4.38;;;15.20;99.90;;;;;;7412301;19;20034;-83
2021/09/22 07:40:53;;;;;;;20.48;5.15;;;15.30;99.90;;;;;;7416742;19;20018;-81
2021/09/22 07:43:34;;;;;;;16.13;4.18;;;15.30;99.90;;;;;;7424959;19;20006;-83
2021/09/22 07:46:06;;;;;;;23.50;5.03;;;15.40;99.90;;;;;;7427919;19;20010;-83
2021/09/22 07:48:42;;;;;;;18.60;4.97;;;15.40;99.90;;;;;;7426849;19;20023;-84
2021/09/22 07:51:44;;;;;;;22.13;6.20;;;15.30;99.90;;;;;;7432650;19;20014;-82
2021/09/22 07:54:14;;;;;;;19.23;4.32;;;15.30;99.90;;;;;;7428272;19;20026;-83
2021/09/22 07:56:44;;;;;;;17.98;5.32;;;15.20;99.90;;;;;;7418474;19;20011;-81
2021/09/22 07:59:36;;;;;;;27.75;6.18;;;15.30;99.90;;;;;;7418906;19;20021;-82
2021/09/22 08:02:08;;;;;;;23.17;4.82;;;15.40;99.90;;;;;;7433698;19;20018;-84
2021/09/22 08:04:38;;;;;;;23.48;5.30;;;15.50;99.90;;;;;;7435868;19;20010;-85
2021/09/22 08:07:08;;;;;;;23.42;4.47;;;15.70;99.90;;;;;;7441003;19;20026;-82
2021/09/22 08:09:41;;;;;;;26.00;5.30;;;15.80;99.90;;;;;;7439408;19;20017;-81
2021/09/22 08:12:29;;;;;;;23.60;5.32;;;15.90;99.90;;;;;;7431748;19;20019;-85
2021/09/22 08:15:08;;;;;;;23.00;6.75;;;15.90;99.90;;;;;;7416849;19;20006;-84
2021/09/22 08:17:43;;;;;;;22.92;4.63;;;16.00;99.90;;;;;;7427575;19;20014;-82
2021/09/22 08:20:45;;;;;;;;;;;;;;;;;;;;;
2021/09/22 08:23:33;;;;;;;19.50;4.53;;;16.00;99.90;;;;;;7418025;19;20010;-82
2021/09/22 08:26:17;;;;;;;17.20;4.22;;;16.10;99.90;;;;;;7416358;19;20417;-83
2021/09/22 08:28:47;;;;;;;21.35;4.25;;;16.20;99.90;;;;;;7417932;19;20022;-84
2021/09/22 08:31:26;;;;;;;17.25;4.03;;;16.20;99.90;;;;;;7422214;19;20428;-84
2021/09/22 08:34:06;;;;;;;16.63;4.53;;;16.20;99.90;;;;;;7422042;19;20006;-86
2021/09/22 08:36:36;;;;;;;26.73;5.78;;;16.10;99.90;;;;;;7415838;19;20015;-84
2021/09/22 08:39:17;;;;;;;19.98;3.80;;;16.10;99.90;;;;;;7439132;19;20010;-85
2021/09/22 08:42:09;;;;;;;17.83;4.18;;;16.20;99.90;;;;;;7444804;19;20035;-87
2021/09/22 08:47:47;;;;;;;17.08;3.13;;;16.70;99.90;;;;;;7398387;19;20027;-86
2021/09/22 08:50:37;;;;;;;19.50;4.13;;;16.90;99.90;;;;;;7418895;19;20105;-85
2021/09/22 08:53:09;;;;;;;19.55;3.13;;;17.10;99.90;;;;;;7420622;19;20021;-84
2021/09/22 08:55:45;;;;;;;19.10;3.50;;;17.30;99.90;;;;;;7414404;19;20017;-82
2021/09/22 08:58:26;;;;;;;19.75;3.38;;;17.40;99.90;;;;;;7422937;19;20026;-87
2021/09/22 09:01:16;;;;;;;21.90;3.55;;;17.60;99.90;;;;;;7418251;19;20010;-84
2021/09/22 09:03:51;;;;;;;18.25;4.40;;;17.70;99.60;;;;;;7407271;19;20013;-82
2021/09/22 09:06:24;;;;;;;20.85;3.45;;;17.80;99.40;;;;;;7405681;19;20022;-83
2021/09/22 09:09:01;;;;;;;17.42;2.63;;;17.90;98.60;;;;;;7418621;19;20025;-82
2021/09/22 09:11:38;;;;;;;18.65;3.03;;;18.00;97.80;;;;;;7429537;19;20043;-84
2021/09/22 09:14:16;;;;;;;20.88;3.03;;;18.00;96.90;;;;;;7417662;19;20063;-81
2021/09/22 09:17:11;;;;;;;23.48;4.03;;;18.10;95.40;;;;;;7426174;19;20039;-85
2021/09/22 09:19:49;;;;;;;16.42;2.75;;;18.10;95.50;;;;;;7408298;19;20018;-83
2021/09/22 09:22:23;;;;;;;16.02;3.55;;;18.30;95.00;;;;;;7405017;19;20015;-84
2021/09/22 09:24:58;;;;;;;20.17;3.17;;;18.50;94.80;;;;;;7407035;19;20432;-85
2021/09/22 09:27:39;;;;;;;21.60;3.90;;;18.90;93.50;;;;;;7410838;19;20010;-84
2021/09/22 09:30:22;;;;;;;13.48;2.80;;;19.00;92.40;;;;;;7406221;19;20354;-84
2021/09/22 09:35:50;;;;;;;13.90;2.70;;;19.40;90.80;;;;;;7411245;19;20026;-84
2021/09/22 09:38:34;;;;;;;16.02;3.72;;;19.70;90.40;;;;;;7406572;19;20018;-85
2021/09/22 09:41:05;;;;;;;12.13;2.42;;;19.70;89.10;;;;;;7406007;19;20021;-85
2021/09/22 09:43:49;;;;;;;15.13;2.72;;;20.00;87.70;;;;;;7401811;19;20435;-83
2021/09/22 09:46:22;;;;;;;16.70;2.85;;;20.00;86.90;;;;;;7401524;19;20021;-83
2021/09/22 09:49:08;;;;;;;21.35;3.55;;;19.90;87.10;;;;;;7402929;19;20022;-82
2021/09/22 09:51:52;;;;;;;14.25;2.80;;;19.60;88.50;;;;;;7404454;19;20023;-83
2021/09/22 09:54:36;;;;;;;16.80;3.13;;;19.40;90.00;;;;;;7405113;19;20400;-84
2021/09/22 09:57:37;;;;;;;16.20;3.30;;;19.20;90.10;;;;;;7410104;19;20323;-85
2021/09/22 10:00:10;;;;;;;14.68;3.08;;;19.50;89.90;;;;;;7407647;19;20002;-84
2021/09/22 10:02:40;;;;;;;17.15;3.10;;;19.80;88.20;;;;;;7406921;19;20021;-84
2021/09/22 10:05:13;;;;;;;19.38;3.22;;;20.00;86.20;;;;;;7409928;19;20015;-83
2021/09/22 10:08:20;;;;;;;16.77;2.60;;;20.40;85.10;;;;;;7425383;19;19995;-85
2021/09/22 10:10:52;;;;;;;15.07;2.67;;;20.70;84.70;;;;;;7423567;19;20030;-85
2021/09/22 10:13:25;;;;;;;13.77;3.15;;;20.80;83.00;;;;;;7414026;19;20020;-82
2021/09/22 10:15:55;;;;;;;13.65;2.80;;;20.80;82.70;;;;;;7412374;19;20317;-82
2021/09/22 10:18:25;;;;;;;13.02;2.83;;;20.70;83.50;;;;;;7413533;19;20011;-85
2021/09/22 10:20:59;;;;;;;14.30;3.08;;;20.50;82.90;;;;;;7418695;19;20018;-84
2021/09/22 10:23:40;;;;;;;15.40;2.75;;;20.60;82.20;;;;;;7427747;19;20119;-84
2021/09/22 10:26:28;;;;;;;14.55;2.67;;;20.90;82.10;;;;;;7415828;19;20018;-85
2021/09/22 10:29:27;;;;;;;16.02;2.67;;;21.10;81.10;;;;;;7421237;19;20042;-84
2021/09/22 10:32:35;;;;;;;22.25;3.30;;;20.90;81.80;;;;;;7419648;19;20040;-82
2021/09/22 10:35:39;;;;;;;17.92;3.78;;;20.50;83.50;;;;;;7416195;19;20018;-82
2021/09/22 10:38:53;;;;;;;13.18;2.95;;;20.50;83.70;;;;;;7412535;19;20010;-82
2021/09/22 10:41:45;;;;;;;16.02;3.53;;;20.70;82.90;;;;;;7403542;19;20025;-85
2021/09/22 10:44:41;;;;;;;14.93;2.72;;;21.00;82.40;;;;;;7400541;19;20119;-84
2021/09/22 10:47:33;;;;;;;15.32;2.53;;;20.90;79.90;;;;;;7399337;19;20382;-82
2021/09/22 10:50:20;;;;;;;17.17;4.55;;;20.50;80.70;;;;;;7401913;19;20011;-81
